sensor_id;sensor_type;location;lat;lon;timestamp;P1;durP1;ratioP1;P2;durP2;ratioP2
8640;SDS011;4358;42.100;25.222;2024-03-25T00:00:40;9.97;;;6.70;;
8640;SDS011;4358;42.100;25.222;2024-03-25T00:03:06;8.77;;;6.50;;
8640;SDS011;4358;42.100;25.222;2024-03-25T00:05:33;8.37;;;6.33;;
8640;SDS011;4358;42.100;25.222;2024-03-25T00:07:59;9.90;;;6.80;;
8640;SDS011;4358;42.100;25.222;2024-03-25T00:10:27;9.50;;;6.67;;
8640;SDS011;4358;42.100;25.222;2024-03-25T00:12:53;9.00;;;7.30;;
8640;SDS011;4358;42.100;25.222;2024-03-25T00:15:21;9.27;;;6.53;;
8640;SDS011;4358;42.100;25.222;2024-03-25T00:17:49;8.90;;;7.30;;
8640;SDS011;4358;42.100;25.222;2024-03-25T00:20:16;8.87;;;6.57;;
8640;SDS011;4358;42.100;25.222;2024-03-25T00:22:41;8.60;;;7.07;;
8640;SDS011;4358;42.100;25.222;2024-03-25T00:25:08;8.10;;;6.50;;
8640;SDS011;4358;42.100;25.222;2024-03-25T00:27:35;10.57;;;6.93;;
8640;SDS011;4358;42.100;25.222;2024-03-25T00:30:03;13.43;;;8.07;;
8640;SDS011;4358;42.100;25.222;2024-03-25T00:32:30;11.57;;;6.93;;
8640;SDS011;4358;42.100;25.222;2024-03-25T00:34:57;11.67;;;7.80;;
8640;SDS011;4358;42.100;25.222;2024-03-25T00:37:22;12.70;;;8.50;;
8640;SDS011;4358;42.100;25.222;2024-03-25T00:39:49;10.77;;;7.97;;
8640;SDS011;4358;42.100;25.222;2024-03-25T00:42:15;13.83;;;10.37;;
8640;SDS011;4358;42.100;25.222;2024-03-25T00:44:43;9.20;;;7.07;;
8640;SDS011;4358;42.100;25.222;2024-03-25T00:47:09;8.23;;;6.90;;
8640;SDS011;4358;42.100;25.222;2024-03-25T00:49:36;8.13;;;6.83;;
8640;SDS011;4358;42.100;25.222;2024-03-25T00:52:02;10.77;;;7.23;;
8640;SDS011;4358;42.100;25.222;2024-03-25T00:54:29;8.33;;;6.90;;
8640;SDS011;4358;42.100;25.222;2024-03-25T00:56:55;7.43;;;6.60;;
8640;SDS011;4358;42.100;25.222;2024-03-25T00:59:23;8.33;;;6.67;;
8640;SDS011;4358;42.100;25.222;2024-03-25T01:01:51;8.70;;;6.40;;
8640;SDS011;4358;42.100;25.222;2024-03-25T01:04:17;8.13;;;6.53;;
8640;SDS011;4358;42.100;25.222;2024-03-25T01:06:43;12.30;;;7.43;;
8640;SDS011;4358;42.100;25.222;2024-03-25T01:09:10;7.37;;;6.57;;
8640;SDS011;4358;42.100;25.222;2024-03-25T01:11:36;6.57;;;5.87;;
8640;SDS011;4358;42.100;25.222;2024-03-25T01:14:02;6.23;;;5.63;;
8640;SDS011;4358;42.100;25.222;2024-03-25T01:16:28;7.27;;;5.70;;
8640;SDS011;4358;42.100;25.222;2024-03-25T01:18:56;5.83;;;5.23;;
8640;SDS011;4358;42.100;25.222;2024-03-25T01:21:23;5.73;;;4.93;;
8640;SDS011;4358;42.100;25.222;2024-03-25T01:23:50;6.17;;;5.57;;
8640;SDS011;4358;42.100;25.222;2024-03-25T01:26:16;7.03;;;5.80;;
8640;SDS011;4358;42.100;25.222;2024-03-25T01:28:43;8.03;;;5.50;;
8640;SDS011;4358;42.100;25.222;2024-03-25T01:31:08;6.63;;;5.33;;
8640;SDS011;4358;42.100;25.222;2024-03-25T01:33:35;7.60;;;5.40;;
8640;SDS011;4358;42.100;25.222;2024-03-25T01:36:03;6.47;;;4.93;;
8640;SDS011;4358;42.100;25.222;2024-03-25T01:38:29;9.03;;;5.97;;
8640;SDS011;4358;42.100;25.222;2024-03-25T01:41:06;6.13;;;5.37;;
8640;SDS011;4358;42.100;25.222;2024-03-25T01:43:32;9.53;;;6.00;;
8640;SDS011;4358;42.100;25.222;2024-03-25T01:45:59;6.37;;;5.43;;
8640;SDS011;4358;42.100;25.222;2024-03-25T01:48:25;8.90;;;6.07;;
8640;SDS011;4358;42.100;25.222;2024-03-25T01:50:52;7.67;;;6.80;;
8640;SDS011;4358;42.100;25.222;2024-03-25T01:53:20;7.33;;;5.50;;
8640;SDS011;4358;42.100;25.222;2024-03-25T01:55:47;6.93;;;6.17;;
8640;SDS011;4358;42.100;25.222;2024-03-25T01:58:14;6.47;;;5.77;;
8640;SDS011;4358;42.100;25.222;2024-03-25T02:00:41;61.73;;;11.57;;
8640;SDS011;4358;42.100;25.222;2024-03-25T02:03:08;10.63;;;6.17;;
8640;SDS011;4358;42.100;25.222;2024-03-25T02:05:35;8.83;;;6.40;;
8640;SDS011;4358;42.100;25.222;2024-03-25T02:08:01;9.47;;;5.87;;
8640;SDS011;4358;42.100;25.222;2024-03-25T02:10:33;6.83;;;6.10;;
8640;SDS011;4358;42.100;25.222;2024-03-25T02:13:00;6.70;;;5.80;;
8640;SDS011;4358;42.100;25.222;2024-03-25T02:15:27;6.93;;;5.93;;
8640;SDS011;4358;42.100;25.222;2024-03-25T02:17:54;7.53;;;5.80;;
8640;SDS011;4358;42.100;25.222;2024-03-25T02:20:21;7.83;;;5.80;;
8640;SDS011;4358;42.100;25.222;2024-03-25T02:22:46;7.90;;;5.67;;
8640;SDS011;4358;42.100;25.222;2024-03-25T02:25:13;8.00;;;3.43;;
8640;SDS011;4358;42.100;25.222;2024-03-25T02:27:43;2.50;;;1.90;;
8640;SDS011;4358;42.100;25.222;2024-03-25T02:30:10;2.90;;;1.30;;
8640;SDS011;4358;42.100;25.222;2024-03-25T02:32:38;2.00;;;0.93;;
8640;SDS011;4358;42.100;25.222;2024-03-25T02:35:06;2.87;;;0.60;;
8640;SDS011;4358;42.100;25.222;2024-03-25T02:37:33;6.03;;;0.80;;
8640;SDS011;4358;42.100;25.222;2024-03-25T02:40:00;0.60;;;0.60;;
8640;SDS011;4358;42.100;25.222;2024-03-25T02:42:27;2.73;;;0.63;;
8640;SDS011;4358;42.100;25.222;2024-03-25T02:44:56;0.40;;;0.40;;
8640;SDS011;4358;42.100;25.222;2024-03-25T02:47:23;0.67;;;0.50;;
8640;SDS011;4358;42.100;25.222;2024-03-25T02:49:50;0.47;;;0.30;;
8640;SDS011;4358;42.100;25.222;2024-03-25T02:52:16;0.40;;;0.40;;
8640;SDS011;4358;42.100;25.222;2024-03-25T02:54:43;0.53;;;0.30;;
8640;SDS011;4358;42.100;25.222;2024-03-25T02:57:09;3.57;;;0.60;;
8640;SDS011;4358;42.100;25.222;2024-03-25T02:59:36;0.50;;;0.40;;
8640;SDS011;4358;42.100;25.222;2024-03-25T03:02:03;1.10;;;0.50;;
8640;SDS011;4358;42.100;25.222;2024-03-25T03:04:30;0.47;;;0.47;;
8640;SDS011;4358;42.100;25.222;2024-03-25T03:06:56;1.40;;;1.00;;
8640;SDS011;4358;42.100;25.222;2024-03-25T03:09:23;2.30;;;0.77;;
8640;SDS011;4358;42.100;25.222;2024-03-25T03:11:49;0.50;;;0.50;;
8640;SDS011;4358;42.100;25.222;2024-03-25T03:14:16;0.53;;;0.50;;
8640;SDS011;4358;42.100;25.222;2024-03-25T03:16:42;0.20;;;0.20;;
8640;SDS011;4358;42.100;25.222;2024-03-25T03:19:10;0.30;;;0.30;;
8640;SDS011;4358;42.100;25.222;2024-03-25T03:21:36;0.73;;;0.40;;
8640;SDS011;4358;42.100;25.222;2024-03-25T03:24:02;0.50;;;0.50;;
8640;SDS011;4358;42.100;25.222;2024-03-25T03:26:29;0.50;;;0.50;;
8640;SDS011;4358;42.100;25.222;2024-03-25T03:28:55;0.63;;;0.40;;
8640;SDS011;4358;42.100;25.222;2024-03-25T03:31:21;0.40;;;0.40;;
8640;SDS011;4358;42.100;25.222;2024-03-25T03:33:48;0.40;;;0.40;;
8640;SDS011;4358;42.100;25.222;2024-03-25T03:36:16;0.43;;;0.43;;
8640;SDS011;4358;42.100;25.222;2024-03-25T03:38:44;0.90;;;0.50;;
8640;SDS011;4358;42.100;25.222;2024-03-25T03:41:09;2.30;;;0.50;;
8640;SDS011;4358;42.100;25.222;2024-03-25T03:43:36;0.40;;;0.40;;
8640;SDS011;4358;42.100;25.222;2024-03-25T03:46:03;0.60;;;0.50;;
8640;SDS011;4358;42.100;25.222;2024-03-25T03:48:30;2.87;;;0.77;;
8640;SDS011;4358;42.100;25.222;2024-03-25T03:50:56;0.50;;;0.50;;
8640;SDS011;4358;42.100;25.222;2024-03-25T03:53:24;0.40;;;0.40;;
8640;SDS011;4358;42.100;25.222;2024-03-25T03:55:53;0.70;;;0.60;;
8640;SDS011;4358;42.100;25.222;2024-03-25T03:58:20;0.87;;;0.57;;
8640;SDS011;4358;42.100;25.222;2024-03-25T04:00:46;0.80;;;0.50;;
8640;SDS011;4358;42.100;25.222;2024-03-25T04:03:13;0.57;;;0.57;;
8640;SDS011;4358;42.100;25.222;2024-03-25T04:05:39;2.63;;;0.50;;
8640;SDS011;4358;42.100;25.222;2024-03-25T04:08:06;1.77;;;1.03;;
8640;SDS011;4358;42.100;25.222;2024-03-25T04:10:35;0.57;;;0.40;;
8640;SDS011;4358;42.100;25.222;2024-03-25T04:13:02;0.70;;;0.70;;
8640;SDS011;4358;42.100;25.222;2024-03-25T04:15:28;0.50;;;0.50;;
8640;SDS011;4358;42.100;25.222;2024-03-25T04:17:56;0.87;;;0.53;;
8640;SDS011;4358;42.100;25.222;2024-03-25T04:20:22;0.60;;;0.50;;
8640;SDS011;4358;42.100;25.222;2024-03-25T04:22:49;0.43;;;0.43;;
8640;SDS011;4358;42.100;25.222;2024-03-25T04:25:15;0.50;;;0.50;;
8640;SDS011;4358;42.100;25.222;2024-03-25T04:27:43;0.40;;;0.40;;
8640;SDS011;4358;42.100;25.222;2024-03-25T04:30:10;0.60;;;0.60;;
8640;SDS011;4358;42.100;25.222;2024-03-25T04:32:38;0.60;;;0.60;;
8640;SDS011;4358;42.100;25.222;2024-03-25T04:35:04;0.90;;;0.40;;
8640;SDS011;4358;42.100;25.222;2024-03-25T04:37:32;0.43;;;0.43;;
8640;SDS011;4358;42.100;25.222;2024-03-25T04:39:59;0.40;;;0.40;;
8640;SDS011;4358;42.100;25.222;2024-03-25T04:42:25;0.50;;;0.50;;
8640;SDS011;4358;42.100;25.222;2024-03-25T04:44:52;1.33;;;0.70;;
8640;SDS011;4358;42.100;25.222;2024-03-25T04:47:18;0.57;;;0.50;;
8640;SDS011;4358;42.100;25.222;2024-03-25T04:49:44;0.50;;;0.50;;
8640;SDS011;4358;42.100;25.222;2024-03-25T04:52:09;0.67;;;0.40;;
8640;SDS011;4358;42.100;25.222;2024-03-25T04:54:37;0.40;;;0.40;;
8640;SDS011;4358;42.100;25.222;2024-03-25T04:57:02;0.67;;;0.50;;
8640;SDS011;4358;42.100;25.222;2024-03-25T04:59:28;1.03;;;0.70;;
8640;SDS011;4358;42.100;25.222;2024-03-25T05:01:55;0.80;;;0.60;;
8640;SDS011;4358;42.100;25.222;2024-03-25T05:04:21;0.70;;;0.70;;
8640;SDS011;4358;42.100;25.222;2024-03-25T05:06:47;0.80;;;0.80;;
8640;SDS011;4358;42.100;25.222;2024-03-25T05:09:13;1.07;;;1.00;;
8640;SDS011;4358;42.100;25.222;2024-03-25T05:11:38;1.10;;;1.00;;
8640;SDS011;4358;42.100;25.222;2024-03-25T05:14:05;1.20;;;1.00;;
8640;SDS011;4358;42.100;25.222;2024-03-25T05:16:30;3.60;;;0.87;;
8640;SDS011;4358;42.100;25.222;2024-03-25T05:18:58;0.50;;;0.50;;
8640;SDS011;4358;42.100;25.222;2024-03-25T05:21:23;0.73;;;0.60;;
8640;SDS011;4358;42.100;25.222;2024-03-25T05:23:49;0.80;;;0.50;;
8640;SDS011;4358;42.100;25.222;2024-03-25T05:26:15;0.83;;;0.63;;
8640;SDS011;4358;42.100;25.222;2024-03-25T05:28:41;0.63;;;0.60;;
8640;SDS011;4358;42.100;25.222;2024-03-25T05:31:07;0.80;;;0.80;;
8640;SDS011;4358;42.100;25.222;2024-03-25T05:33:33;1.53;;;0.60;;
8640;SDS011;4358;42.100;25.222;2024-03-25T05:36:00;1.00;;;0.80;;
8640;SDS011;4358;42.100;25.222;2024-03-25T05:38:27;1.70;;;1.20;;
8640;SDS011;4358;42.100;25.222;2024-03-25T05:40:53;1.43;;;1.10;;
8640;SDS011;4358;42.100;25.222;2024-03-25T05:43:19;0.80;;;0.70;;
8640;SDS011;4358;42.100;25.222;2024-03-25T05:45:49;0.47;;;0.47;;
8640;SDS011;4358;42.100;25.222;2024-03-25T05:48:16;1.60;;;1.20;;
8640;SDS011;4358;42.100;25.222;2024-03-25T05:50:41;0.77;;;0.60;;
8640;SDS011;4358;42.100;25.222;2024-03-25T05:53:09;0.43;;;0.43;;
8640;SDS011;4358;42.100;25.222;2024-03-25T05:55:35;0.97;;;0.50;;
8640;SDS011;4358;42.100;25.222;2024-03-25T05:58:00;0.60;;;0.60;;
8640;SDS011;4358;42.100;25.222;2024-03-25T06:00:27;2.57;;;1.50;;
8640;SDS011;4358;42.100;25.222;2024-03-25T06:02:53;0.70;;;0.70;;
8640;SDS011;4358;42.100;25.222;2024-03-25T06:05:19;0.70;;;0.70;;
8640;SDS011;4358;42.100;25.222;2024-03-25T06:07:45;1.43;;;1.00;;
8640;SDS011;4358;42.100;25.222;2024-03-25T06:10:12;0.80;;;0.80;;
8640;SDS011;4358;42.100;25.222;2024-03-25T06:12:38;0.60;;;0.60;;
8640;SDS011;4358;42.100;25.222;2024-03-25T06:15:04;0.53;;;0.53;;
8640;SDS011;4358;42.100;25.222;2024-03-25T06:17:31;0.63;;;0.50;;
8640;SDS011;4358;42.100;25.222;2024-03-25T06:19:56;0.63;;;0.63;;
8640;SDS011;4358;42.100;25.222;2024-03-25T06:22:22;1.30;;;0.90;;
8640;SDS011;4358;42.100;25.222;2024-03-25T06:24:48;1.20;;;0.80;;
8640;SDS011;4358;42.100;25.222;2024-03-25T06:27:15;1.70;;;1.10;;
8640;SDS011;4358;42.100;25.222;2024-03-25T06:29:41;0.80;;;0.80;;
8640;SDS011;4358;42.100;25.222;2024-03-25T06:32:07;3.63;;;1.13;;
8640;SDS011;4358;42.100;25.222;2024-03-25T06:34:51;2.00;;;1.37;;
8640;SDS011;4358;42.100;25.222;2024-03-25T06:37:17;1.33;;;1.20;;
8640;SDS011;4358;42.100;25.222;2024-03-25T06:39:43;3.40;;;1.23;;
8640;SDS011;4358;42.100;25.222;2024-03-25T06:42:08;4.50;;;2.37;;
8640;SDS011;4358;42.100;25.222;2024-03-25T06:44:35;3.50;;;3.10;;
8640;SDS011;4358;42.100;25.222;2024-03-25T06:47:01;1.43;;;1.13;;
8640;SDS011;4358;42.100;25.222;2024-03-25T06:49:27;1.63;;;1.40;;
8640;SDS011;4358;42.100;25.222;2024-03-25T06:51:53;2.63;;;2.17;;
8640;SDS011;4358;42.100;25.222;2024-03-25T06:54:19;1.83;;;1.47;;
8640;SDS011;4358;42.100;25.222;2024-03-25T06:56:45;1.90;;;1.40;;
8640;SDS011;4358;42.100;25.222;2024-03-25T06:59:11;2.30;;;1.73;;
8640;SDS011;4358;42.100;25.222;2024-03-25T07:01:38;2.43;;;1.50;;
8640;SDS011;4358;42.100;25.222;2024-03-25T07:04:04;1.97;;;1.57;;
8640;SDS011;4358;42.100;25.222;2024-03-25T07:06:30;1.90;;;1.37;;
8640;SDS011;4358;42.100;25.222;2024-03-25T07:08:56;1.60;;;1.20;;
8640;SDS011;4358;42.100;25.222;2024-03-25T07:11:22;1.47;;;1.37;;
8640;SDS011;4358;42.100;25.222;2024-03-25T07:13:47;1.60;;;1.50;;
8640;SDS011;4358;42.100;25.222;2024-03-25T07:16:13;1.83;;;1.60;;
8640;SDS011;4358;42.100;25.222;2024-03-25T07:18:40;2.40;;;1.40;;
8640;SDS011;4358;42.100;25.222;2024-03-25T07:21:06;1.90;;;1.50;;
8640;SDS011;4358;42.100;25.222;2024-03-25T07:23:32;2.07;;;1.87;;
8640;SDS011;4358;42.100;25.222;2024-03-25T07:25:58;4.60;;;1.80;;
8640;SDS011;4358;42.100;25.222;2024-03-25T07:28:24;2.10;;;1.70;;
8640;SDS011;4358;42.100;25.222;2024-03-25T07:30:49;7.93;;;2.67;;
8640;SDS011;4358;42.100;25.222;2024-03-25T07:33:15;2.40;;;1.93;;
8640;SDS011;4358;42.100;25.222;2024-03-25T07:35:44;3.67;;;2.10;;
8640;SDS011;4358;42.100;25.222;2024-03-25T07:38:10;3.30;;;1.93;;
8640;SDS011;4358;42.100;25.222;2024-03-25T07:40:36;3.53;;;1.87;;
8640;SDS011;4358;42.100;25.222;2024-03-25T07:43:01;6.93;;;2.20;;
8640;SDS011;4358;42.100;25.222;2024-03-25T07:45:27;5.03;;;2.53;;
8640;SDS011;4358;42.100;25.222;2024-03-25T07:47:53;3.17;;;2.13;;
8640;SDS011;4358;42.100;25.222;2024-03-25T07:50:19;2.30;;;2.07;;
8640;SDS011;4358;42.100;25.222;2024-03-25T07:52:46;5.03;;;2.57;;
8640;SDS011;4358;42.100;25.222;2024-03-25T07:55:12;4.20;;;2.80;;
8640;SDS011;4358;42.100;25.222;2024-03-25T07:57:38;2.90;;;2.17;;
8640;SDS011;4358;42.100;25.222;2024-03-25T08:00:05;4.63;;;2.50;;
8640;SDS011;4358;42.100;25.222;2024-03-25T08:02:31;2.30;;;1.77;;
8640;SDS011;4358;42.100;25.222;2024-03-25T08:04:57;2.40;;;1.87;;
8640;SDS011;4358;42.100;25.222;2024-03-25T08:07:23;2.77;;;1.90;;
8640;SDS011;4358;42.100;25.222;2024-03-25T08:09:50;4.80;;;2.90;;
8640;SDS011;4358;42.100;25.222;2024-03-25T08:12:16;4.10;;;2.17;;
8640;SDS011;4358;42.100;25.222;2024-03-25T08:14:41;5.70;;;2.33;;
8640;SDS011;4358;42.100;25.222;2024-03-25T08:17:08;2.27;;;2.03;;
8640;SDS011;4358;42.100;25.222;2024-03-25T08:19:33;3.40;;;2.60;;
8640;SDS011;4358;42.100;25.222;2024-03-25T08:21:59;3.37;;;2.00;;
8640;SDS011;4358;42.100;25.222;2024-03-25T08:24:25;2.90;;;1.90;;
8640;SDS011;4358;42.100;25.222;2024-03-25T08:26:52;3.10;;;2.20;;
8640;SDS011;4358;42.100;25.222;2024-03-25T08:29:18;3.80;;;2.07;;
8640;SDS011;4358;42.100;25.222;2024-03-25T08:31:44;2.30;;;2.00;;
8640;SDS011;4358;42.100;25.222;2024-03-25T08:34:10;2.80;;;2.33;;
8640;SDS011;4358;42.100;25.222;2024-03-25T08:36:36;2.60;;;2.40;;
8640;SDS011;4358;42.100;25.222;2024-03-25T08:39:01;3.13;;;2.00;;
8640;SDS011;4358;42.100;25.222;2024-03-25T08:41:27;2.20;;;1.77;;
8640;SDS011;4358;42.100;25.222;2024-03-25T08:43:55;2.90;;;2.00;;
8640;SDS011;4358;42.100;25.222;2024-03-25T08:46:20;3.60;;;2.77;;
8640;SDS011;4358;42.100;25.222;2024-03-25T08:48:46;4.73;;;2.30;;
8640;SDS011;4358;42.100;25.222;2024-03-25T08:51:12;2.83;;;1.90;;
8640;SDS011;4358;42.100;25.222;2024-03-25T08:53:38;3.67;;;2.20;;
8640;SDS011;4358;42.100;25.222;2024-03-25T08:56:04;4.90;;;2.20;;
8640;SDS011;4358;42.100;25.222;2024-03-25T08:58:30;1.63;;;1.53;;
8640;SDS011;4358;42.100;25.222;2024-03-25T09:00:58;2.90;;;2.27;;
8640;SDS011;4358;42.100;25.222;2024-03-25T09:03:23;3.53;;;1.90;;
8640;SDS011;4358;42.100;25.222;2024-03-25T09:05:49;2.77;;;2.30;;
8640;SDS011;4358;42.100;25.222;2024-03-25T09:08:15;2.00;;;1.60;;
8640;SDS011;4358;42.100;25.222;2024-03-25T09:10:43;1.70;;;1.37;;
8640;SDS011;4358;42.100;25.222;2024-03-25T09:13:27;2.13;;;1.93;;
8640;SDS011;4358;42.100;25.222;2024-03-25T09:15:54;3.37;;;2.30;;
8640;SDS011;4358;42.100;25.222;2024-03-25T09:18:21;2.20;;;2.00;;
8640;SDS011;4358;42.100;25.222;2024-03-25T09:20:47;2.03;;;1.80;;
8640;SDS011;4358;42.100;25.222;2024-03-25T09:23:13;4.20;;;2.03;;
8640;SDS011;4358;42.100;25.222;2024-03-25T09:25:38;2.70;;;1.90;;
8640;SDS011;4358;42.100;25.222;2024-03-25T09:28:04;2.60;;;1.90;;
8640;SDS011;4358;42.100;25.222;2024-03-25T09:30:31;5.20;;;2.10;;
8640;SDS011;4358;42.100;25.222;2024-03-25T09:32:57;2.17;;;1.97;;
8640;SDS011;4358;42.100;25.222;2024-03-25T09:35:24;2.20;;;2.00;;
8640;SDS011;4358;42.100;25.222;2024-03-25T09:37:50;3.23;;;2.30;;
8640;SDS011;4358;42.100;25.222;2024-03-25T09:40:16;5.87;;;1.93;;
8640;SDS011;4358;42.100;25.222;2024-03-25T09:42:42;4.03;;;2.70;;
8640;SDS011;4358;42.100;25.222;2024-03-25T09:45:13;3.50;;;1.60;;
8640;SDS011;4358;42.100;25.222;2024-03-25T09:47:41;4.53;;;1.87;;
8640;SDS011;4358;42.100;25.222;2024-03-25T09:50:12;3.47;;;2.07;;
8640;SDS011;4358;42.100;25.222;2024-03-25T09:52:40;3.77;;;1.53;;
8640;SDS011;4358;42.100;25.222;2024-03-25T09:55:06;1.97;;;1.70;;
8640;SDS011;4358;42.100;25.222;2024-03-25T09:57:33;1.47;;;1.37;;
8640;SDS011;4358;42.100;25.222;2024-03-25T10:00:00;1.87;;;1.40;;
8640;SDS011;4358;42.100;25.222;2024-03-25T10:02:26;2.27;;;1.87;;
8640;SDS011;4358;42.100;25.222;2024-03-25T10:04:54;1.83;;;1.73;;
8640;SDS011;4358;42.100;25.222;2024-03-25T10:07:24;3.10;;;1.70;;
8640;SDS011;4358;42.100;25.222;2024-03-25T10:09:52;5.43;;;1.60;;
8640;SDS011;4358;42.100;25.222;2024-03-25T10:12:18;1.97;;;1.77;;
8640;SDS011;4358;42.100;25.222;2024-03-25T10:14:44;2.10;;;1.73;;
8640;SDS011;4358;42.100;25.222;2024-03-25T10:17:09;3.40;;;1.23;;
8640;SDS011;4358;42.100;25.222;2024-03-25T10:19:35;1.80;;;1.40;;
8640;SDS011;4358;42.100;25.222;2024-03-25T10:22:02;1.70;;;1.60;;
8640;SDS011;4358;42.100;25.222;2024-03-25T10:24:36;1.50;;;1.40;;
8640;SDS011;4358;42.100;25.222;2024-03-25T10:27:04;1.73;;;1.30;;
8640;SDS011;4358;42.100;25.222;2024-03-25T10:29:30;1.60;;;1.50;;
8640;SDS011;4358;42.100;25.222;2024-03-25T10:31:59;2.80;;;1.57;;
8640;SDS011;4358;42.100;25.222;2024-03-25T10:34:25;2.03;;;1.57;;
8640;SDS011;4358;42.100;25.222;2024-03-25T10:36:51;2.67;;;1.50;;
8640;SDS011;4358;42.100;25.222;2024-03-25T10:39:24;1.97;;;1.30;;
8640;SDS011;4358;42.100;25.222;2024-03-25T10:41:53;1.50;;;1.40;;
8640;SDS011;4358;42.100;25.222;2024-03-25T10:44:22;1.37;;;1.27;;
8640;SDS011;4358;42.100;25.222;2024-03-25T10:46:50;2.73;;;1.20;;
8640;SDS011;4358;42.100;25.222;2024-03-25T10:49:21;3.00;;;1.10;;
8640;SDS011;4358;42.100;25.222;2024-03-25T10:51:58;1.17;;;0.90;;
8640;SDS011;4358;42.100;25.222;2024-03-25T10:54:25;1.20;;;1.10;;
8640;SDS011;4358;42.100;25.222;2024-03-25T10:56:54;1.20;;;1.00;;
8640;SDS011;4358;42.100;25.222;2024-03-25T10:59:22;2.50;;;1.00;;
8640;SDS011;4358;42.100;25.222;2024-03-25T11:01:49;3.00;;;1.10;;
8640;SDS011;4358;42.100;25.222;2024-03-25T11:04:15;1.30;;;1.20;;
8640;SDS011;4358;42.100;25.222;2024-03-25T11:06:41;2.60;;;1.10;;
8640;SDS011;4358;42.100;25.222;2024-03-25T11:09:07;1.40;;;1.30;;
8640;SDS011;4358;42.100;25.222;2024-03-25T11:11:33;1.30;;;1.00;;
8640;SDS011;4358;42.100;25.222;2024-03-25T11:14:02;4.00;;;1.30;;
8640;SDS011;4358;42.100;25.222;2024-03-25T11:16:32;2.60;;;1.80;;
8640;SDS011;4358;42.100;25.222;2024-03-25T11:19:00;2.27;;;1.53;;
8640;SDS011;4358;42.100;25.222;2024-03-25T11:21:27;2.70;;;1.43;;
8640;SDS011;4358;42.100;25.222;2024-03-25T11:23:53;1.50;;;1.40;;
8640;SDS011;4358;42.100;25.222;2024-03-25T11:26:20;1.40;;;1.00;;
8640;SDS011;4358;42.100;25.222;2024-03-25T11:28:47;2.13;;;1.30;;
8640;SDS011;4358;42.100;25.222;2024-03-25T11:31:12;3.30;;;1.40;;
8640;SDS011;4358;42.100;25.222;2024-03-25T11:33:40;1.53;;;1.20;;
8640;SDS011;4358;42.100;25.222;2024-03-25T11:36:07;1.60;;;1.23;;
8640;SDS011;4358;42.100;25.222;2024-03-25T11:38:33;1.60;;;1.40;;
8640;SDS011;4358;42.100;25.222;2024-03-25T11:40:59;1.13;;;1.03;;
8640;SDS011;4358;42.100;25.222;2024-03-25T11:43:26;1.20;;;1.10;;
8640;SDS011;4358;42.100;25.222;2024-03-25T11:45:52;0.73;;;0.70;;
8640;SDS011;4358;42.100;25.222;2024-03-25T11:48:18;1.20;;;1.10;;
8640;SDS011;4358;42.100;25.222;2024-03-25T11:50:46;2.27;;;1.00;;
8640;SDS011;4358;42.100;25.222;2024-03-25T11:53:13;1.20;;;1.10;;
8640;SDS011;4358;42.100;25.222;2024-03-25T11:55:40;1.73;;;1.40;;
8640;SDS011;4358;42.100;25.222;2024-03-25T11:58:06;2.23;;;1.30;;
8640;SDS011;4358;42.100;25.222;2024-03-25T12:00:32;1.27;;;1.00;;
8640;SDS011;4358;42.100;25.222;2024-03-25T12:02:58;0.80;;;0.80;;
8640;SDS011;4358;42.100;25.222;2024-03-25T12:05:25;3.23;;;1.00;;
8640;SDS011;4358;42.100;25.222;2024-03-25T12:07:52;1.23;;;1.13;;
8640;SDS011;4358;42.100;25.222;2024-03-25T12:10:18;1.10;;;1.00;;
8640;SDS011;4358;42.100;25.222;2024-03-25T12:13:03;2.17;;;1.07;;
8640;SDS011;4358;42.100;25.222;2024-03-25T12:15:29;1.10;;;0.87;;
8640;SDS011;4358;42.100;25.222;2024-03-25T12:17:55;1.27;;;0.67;;
8640;SDS011;4358;42.100;25.222;2024-03-25T12:20:21;2.53;;;1.10;;
8640;SDS011;4358;42.100;25.222;2024-03-25T12:22:48;1.10;;;1.00;;
8640;SDS011;4358;42.100;25.222;2024-03-25T12:25:15;2.20;;;1.60;;
8640;SDS011;4358;42.100;25.222;2024-03-25T12:27:41;1.37;;;1.00;;
8640;SDS011;4358;42.100;25.222;2024-03-25T12:30:12;2.30;;;0.93;;
8640;SDS011;4358;42.100;25.222;2024-03-25T12:32:38;1.07;;;0.90;;
8640;SDS011;4358;42.100;25.222;2024-03-25T12:35:08;2.30;;;1.10;;
8640;SDS011;4358;42.100;25.222;2024-03-25T12:37:35;1.77;;;1.10;;
8640;SDS011;4358;42.100;25.222;2024-03-25T12:40:02;4.87;;;1.47;;
8640;SDS011;4358;42.100;25.222;2024-03-25T12:42:32;1.43;;;1.33;;
8640;SDS011;4358;42.100;25.222;2024-03-25T12:44:58;1.23;;;1.13;;
8640;SDS011;4358;42.100;25.222;2024-03-25T12:47:24;1.57;;;1.27;;
8640;SDS011;4358;42.100;25.222;2024-03-25T12:49:50;1.57;;;1.20;;
8640;SDS011;4358;42.100;25.222;2024-03-25T12:52:16;1.90;;;1.57;;
8640;SDS011;4358;42.100;25.222;2024-03-25T12:54:42;4.23;;;1.50;;
8640;SDS011;4358;42.100;25.222;2024-03-25T12:57:08;1.80;;;1.70;;
8640;SDS011;4358;42.100;25.222;2024-03-25T12:59:35;2.10;;;1.50;;
8640;SDS011;4358;42.100;25.222;2024-03-25T13:02:04;1.53;;;1.00;;
8640;SDS011;4358;42.100;25.222;2024-03-25T13:04:30;1.50;;;1.27;;
8640;SDS011;4358;42.100;25.222;2024-03-25T13:06:56;1.20;;;1.10;;
8640;SDS011;4358;42.100;25.222;2024-03-25T13:09:21;1.40;;;1.30;;
8640;SDS011;4358;42.100;25.222;2024-03-25T13:11:47;1.03;;;0.93;;
8640;SDS011;4358;42.100;25.222;2024-03-25T13:14:14;1.13;;;1.00;;
8640;SDS011;4358;42.100;25.222;2024-03-25T13:16:41;1.00;;;1.00;;
8640;SDS011;4358;42.100;25.222;2024-03-25T13:19:07;0.90;;;0.90;;
8640;SDS011;4358;42.100;25.222;2024-03-25T13:21:33;1.13;;;1.00;;
8640;SDS011;4358;42.100;25.222;2024-03-25T13:23:59;0.80;;;0.80;;
8640;SDS011;4358;42.100;25.222;2024-03-25T13:26:25;2.80;;;1.20;;
8640;SDS011;4358;42.100;25.222;2024-03-25T13:28:54;1.77;;;1.30;;
8640;SDS011;4358;42.100;25.222;2024-03-25T13:31:20;1.40;;;0.90;;
8640;SDS011;4358;42.100;25.222;2024-03-25T13:33:47;1.73;;;1.40;;
8640;SDS011;4358;42.100;25.222;2024-03-25T13:36:13;1.30;;;1.20;;
8640;SDS011;4358;42.100;25.222;2024-03-25T13:38:38;1.70;;;1.40;;
8640;SDS011;4358;42.100;25.222;2024-03-25T13:41:05;1.67;;;1.40;;
8640;SDS011;4358;42.100;25.222;2024-03-25T13:43:31;1.70;;;1.37;;
8640;SDS011;4358;42.100;25.222;2024-03-25T13:45:56;3.37;;;1.37;;
8640;SDS011;4358;42.100;25.222;2024-03-25T13:48:22;1.10;;;1.00;;
8640;SDS011;4358;42.100;25.222;2024-03-25T13:50:52;5.27;;;1.00;;
8640;SDS011;4358;42.100;25.222;2024-03-25T13:53:19;3.63;;;1.20;;
8640;SDS011;4358;42.100;25.222;2024-03-25T13:55:45;1.17;;;1.00;;
8640;SDS011;4358;42.100;25.222;2024-03-25T13:58:11;1.10;;;0.90;;
8640;SDS011;4358;42.100;25.222;2024-03-25T14:00:37;1.03;;;0.93;;
8640;SDS011;4358;42.100;25.222;2024-03-25T14:03:03;2.30;;;1.20;;
8640;SDS011;4358;42.100;25.222;2024-03-25T14:05:29;1.17;;;1.00;;
8640;SDS011;4358;42.100;25.222;2024-03-25T14:07:56;1.20;;;1.10;;
8640;SDS011;4358;42.100;25.222;2024-03-25T14:10:22;2.63;;;1.10;;
8640;SDS011;4358;42.100;25.222;2024-03-25T14:12:48;1.13;;;1.00;;
8640;SDS011;4358;42.100;25.222;2024-03-25T14:15:14;1.77;;;1.20;;
8640;SDS011;4358;42.100;25.222;2024-03-25T14:17:40;2.27;;;1.10;;
8640;SDS011;4358;42.100;25.222;2024-03-25T14:20:06;1.03;;;0.97;;
8640;SDS011;4358;42.100;25.222;2024-03-25T14:22:33;1.20;;;1.00;;
8640;SDS011;4358;42.100;25.222;2024-03-25T14:25:00;1.10;;;0.80;;
8640;SDS011;4358;42.100;25.222;2024-03-25T14:27:26;2.27;;;1.03;;
8640;SDS011;4358;42.100;25.222;2024-03-25T14:29:52;2.93;;;0.97;;
8640;SDS011;4358;42.100;25.222;2024-03-25T14:32:18;2.07;;;1.30;;
8640;SDS011;4358;42.100;25.222;2024-03-25T14:34:45;1.97;;;1.77;;
8640;SDS011;4358;42.100;25.222;2024-03-25T14:37:11;3.17;;;1.80;;
8640;SDS011;4358;42.100;25.222;2024-03-25T14:39:36;2.00;;;1.80;;
8640;SDS011;4358;42.100;25.222;2024-03-25T14:42:04;2.43;;;2.07;;
8640;SDS011;4358;42.100;25.222;2024-03-25T14:44:30;1.93;;;1.73;;
8640;SDS011;4358;42.100;25.222;2024-03-25T14:46:56;2.10;;;1.90;;
8640;SDS011;4358;42.100;25.222;2024-03-25T14:49:22;1.97;;;1.70;;
8640;SDS011;4358;42.100;25.222;2024-03-25T14:51:48;1.80;;;1.67;;
8640;SDS011;4358;42.100;25.222;2024-03-25T14:54:14;2.00;;;1.60;;
8640;SDS011;4358;42.100;25.222;2024-03-25T14:56:39;2.03;;;1.70;;